Selected Arizona METAR Reports


Metar stations are listed by distance from this station - near to far. The 'official' reporting station for the Greater Phoenix area is KPHX - Phoenix/Sky Harbor.

KDVT - Phoenix/Deer Valley, Arizona, USA
Distance from station: NW 4mi, 7km
Updated: Tue 11 Dec 2018 1653 MST
Clear
Clear
 Wind from E
Wind: E 5 mph , 7 km/h
Temperature: 66°F , 19°C
Dew Point: 37°F , 3°C
Humidity: 35%
Barometer: 29.97 inHg , 1014.9 hPa
Clouds: Clear
Visibility: 10 miles , 16 km
2018/12/11 23:53 KDVT 112353Z 09004KT 10SM CLR 19/03 A2997 RMK AO2 SLP136 T01940028 10211 20194 57007
KSDL - Scottsdale, Arizona, USA
Distance from station: ESE 6mi, 9km
Updated: Tue 11 Dec 2018 1653 MST
Clear
Clear
 Wind from S
Wind: S 3 mph , 6 km/h
Temperature: 66°F , 19°C
Dew Point: 36°F , 2°C
Humidity: 32%
Barometer: 29.99 inHg , 1015.6 hPa
Clouds: Clear
Visibility: 10 miles , 16 km
2018/12/11 23:53 KSDL 112353Z 19003KT 10SM CLR 19/02 A2999 RMK AO2 SLP142 T01940017 10217 20178 55004
 
KPHX - Phoenix/Sky Harbor, Arizona, USA
Distance from station: S 15mi, 24km
Updated: Tue 11 Dec 2018 1651 MST
Mostly cloudy
Mostly cloudy
 Wind from SSE
Wind: SSE 6 mph , 9 km/h
Temperature: 70°F , 21°C
Dew Point: 36°F , 2°C
Humidity: 29%
Barometer: 29.96 inHg , 1014.6 hPa
Clouds: Mostly cloudy
Visibility: 10 miles , 16 km
Cloud details: Partly cloudy 13000 ft
Mostly cloudy 16000 ft
Mostly cloudy 20000 ft
2018/12/11 23:51 KPHX 112351Z 16005KT 10SM SCT130 BKN160 BKN200 21/02 A2996 RMK AO2 SLP134 T02060022 10222 20161 55006
KGEU - Glendale, Arizona, USA
Distance from station: WSW 19mi, 30km
Updated: Tue 11 Dec 2018 1555 MST
NOT Current
Mostly cloudy
Mostly cloudy
 Wind from varies
Wind: varies 3 mph , 6 km/h
Temperature: 70°F , 21°C
Dew Point: 36°F , 2°C
Humidity: 29%
Barometer: 29.99 inHg , 1015.6 hPa
Clouds: Mostly cloudy
Visibility: 10 miles , 16 km
Cloud details: Mostly cloudy 12000 ft
Mostly cloudy 20000 ft
2018/12/11 22:55 KGEU 112255Z VRB03KT 10SM BKN120 BKN200 21/02 A2999
 
KFFZ - Mesa/Falcon Field, Arizona, USA
Distance from station: SE 21mi, 33km
Updated: Tue 11 Dec 2018 1654 MST
Few Clouds
Few Clouds
 Wind from calm
Wind: Calm
Temperature: 68°F , 20°C
Dew Point: 34°F , 1°C
Humidity: 28%
Barometer: 29.97 inHg , 1014.9 hPa
Clouds: Few Clouds
Visibility: 10 miles , 16 km
Cloud details: Few Clouds 10000 ft
2018/12/11 23:54 KFFZ 112354Z AUTO 00000KT 10SM FEW100 20/01 A2997 RMK AO2 SLP134 T02000011 10211 20183 58006
KLUF - Luke AFB/Glendale, Arizona, USA
Distance from station: WSW 23mi, 36km
Updated: Tue 11 Dec 2018 1658 MST
Clear
Clear
 Wind from SW
Wind: SW 7 mph , 11 km/h
Temperature: 64°F , 18°C
Dew Point: 41°F , 5°C
Humidity: 43%
Barometer: 29.96 inHg , 1014.6 hPa
Clouds: Clear
Visibility: 10 miles , 16 km
2018/12/11 23:58 KLUF 112358Z AUTO 22006KT 10SM CLR 18/05 A2996 RMK AO2 DZB41E44 SLP142 P0000 60000 T01830048 10208 20180 55004 $
 
KGYR - Goodyear Municipal, Arizona, USA
Distance from station: SW 26mi, 42km
Updated: Tue 11 Dec 2018 1647 MST
Mostly cloudy
Mostly cloudy
 Wind from WSW
Wind: WSW 6 mph , 9 km/h
Temperature: 64°F , 18°C
Dew Point: 43°F , 6°C
Humidity: 46%
Barometer: 29.98 inHg , 1015.2 hPa
Clouds: Mostly cloudy
Visibility: 10 miles , 16 km
Cloud details: Partly cloudy 12000 ft
Mostly cloudy 18000 ft
Mostly cloudy 22000 ft
2018/12/11 23:47 KGYR 112347Z 24005KT 10SM SCT120 BKN180 BKN220 18/06 A2998
KIWA - Chandler/Mesa, Arizona, USA
Distance from station: SE 32mi, 51km
Updated: Tue 11 Dec 2018 1653 MST
Mostly cloudy
Mostly cloudy
 Wind from varies
Wind: varies 3 mph , 6 km/h
Temperature: 66°F , 19°C
Dew Point: 37°F , 3°C
Humidity: 35%
Barometer: 29.99 inHg , 1015.6 hPa
Clouds: Mostly cloudy
Visibility: 35 miles , 56 km
Cloud details: Partly cloudy 10000 ft
Mostly cloudy 12000 ft
2018/12/11 23:53 KIWA 112353Z VRB03KT 35SM SCT100 BKN120 19/03 A2999
 
KBXK - Buckeye, Arizona, USA
Distance from station: WSW 42mi, 68km
Updated: Tue 11 Dec 2018 0955 MST
NOT Current

 
2018/12/11 16:55 KBXK 111655Z AUTO RMK AO1
KCGZ - Casa Grande, Arizona, USA
Distance from station: SSE 50mi, 81km
Updated: Tue 11 Dec 2018 1656 MST
Clear
Clear
 Wind from NW
Wind: NW 3 mph , 6 km/h
Temperature: 61°F , 16°C
Dew Point: 43°F , 6°C
Humidity: 52%
Barometer: 29.99 inHg , 1015.6 hPa
Clouds: Clear
Visibility: 10 miles , 16 km
2018/12/11 23:56 KCGZ 112356Z AUTO 32003KT 10SM CLR 16/06 A2999 RMK AO2 SLP152 6//// T01560061 10189 20144 56008 $
 
KPAN - Payson, Arizona, USA
Distance from station: NE 57mi, 91km
Updated: Tue 11 Dec 2018 1715 MST
Clear
Clear
 Wind from SSE
Wind: SSE 3 mph , 6 km/h
Temperature: 48°F , 9°C
Dew Point: 28°F , -2°C
Humidity: 46%
Barometer: 30.12 inHg , 1020 hPa
Clouds: Clear
Visibility: 10 miles , 16 km
2018/12/12 00:15 KPAN 120015Z AUTO 16003KT 10SM CLR 09/M02 A3012 RMK AO2
KGBN - Gila Bend (aaf), Arizona, USA
Distance from station: SW 68mi, 109km
Updated: Thu 20 Jul 2017 0757 MST
NOT Current
Partly cloudy
Partly cloudy
 Wind from calm
Wind: Calm
Temperature: 86°F , 30°C
Heat Index: 89°F , 32°C
Dew Point: 68°F , 20°C
Humidity: 55%
Barometer: 29.97 inHg , 1014.9 hPa
Clouds: Partly cloudy
Visibility: 10 miles , 16 km
Cloud details: Few Clouds 10000 ft
Partly cloudy 15000 ft
2017/07/20 14:57 KGBN 201457Z 00000KT 10SM FEW100 SCT150 30/20 A2997 RMK A02 NO SLP
 
KPRC - Prescott, Arizona, USA
Distance from station: NNW 73mi, 118km
Updated: Tue 11 Dec 2018 1653 MST
Clear
Clear
 Wind from SE
Wind: SE 8 mph , 13 km/h
Temperature: 55°F , 13°C
Dew Point: 28°F , -2°C
Humidity: 36%
Barometer: 30.09 inHg , 1019 hPa
Clouds: Clear
Visibility: 10 miles , 16 km
2018/12/11 23:53 KPRC 112353Z 13007KT 10SM CLR 13/M02 A3009 RMK AO2 SLP158 T01331017 10167 20100 55002
KSEZ - Sedona, Arizona, USA
Distance from station: N 84mi, 135km
Updated: Tue 11 Dec 2018 1715 MST
Clear
Clear
 Wind from SW
Wind: SW 5 mph , 7 km/h
Temperature: 55°F , 13°C
Dew Point: 30°F , -1°C
Humidity: 38%
Barometer: 30.10 inHg , 1019.3 hPa
Clouds: Clear
Visibility: 10 miles , 16 km
2018/12/12 00:15 KSEZ 120015Z AUTO 22004KT 10SM CLR 13/M01 A3010 RMK AO2
 
KFLG - Flagstaff, Arizona, USA
Distance from station: N 105mi, 168km
Updated: Tue 11 Dec 2018 1657 MST
Clear
Clear
 Wind from SSW
Wind: SSW 7 mph , 11 km/h
Temperature: 45°F , 7°C
Wind Chill: 41°F , 5°C
Dew Point: 27°F , -3°C
Humidity: 49%
Barometer: 30.16 inHg , 1021.3 hPa
Clouds: Clear
Visibility: 10 miles , 16 km
2018/12/11 23:57 KFLG 112357Z 20006KT 10SM CLR 07/M03 A3016 RMK AO2 SLP189 T00671033 10111 20067 53001
KRYN - Tucson/Ryan Field, Arizona, USA
Distance from station: SSE 114mi, 184km
Updated: Tue 11 Dec 2018 1645 MST
Clear
Clear
 Wind from NNW
Wind: NNW 3 mph , 6 km/h
Temperature: 64°F , 18°C
Dew Point: 43°F , 6°C
Humidity: 46%
Barometer: 30.02 inHg , 1016.6 hPa
Clouds: Clear
Visibility: 10 miles , 16 km
2018/12/11 23:45 KRYN 112345Z 33003KT 10SM CLR 18/06 A3002
 
KCMR - Williams Clark, Arizona, USA
Distance from station: N 115mi, 185km
Updated: Tue 11 Dec 2018 1715 MST
Clear
Clear
 Wind from SSW
Wind: SSW 5 mph , 7 km/h
Temperature: 46°F , 8°C
Wind Chill: 44°F , 7°C
Dew Point: 21°F , -6°C
Humidity: 37%
Barometer: 30.13 inHg , 1020.3 hPa
Clouds: Clear
Visibility: 10 miles , 16 km
2018/12/12 00:15 KCMR 120015Z AUTO 20004KT 10SM CLR 08/M06 A3013 RMK AO2
KINW - Winslow, Arizona, USA
Distance from station: NE 121mi, 194km
Updated: Tue 11 Dec 2018 1656 MST
Clear
Clear
 Wind from NW
Wind: NW 5 mph , 7 km/h
Temperature: 52°F , 11°C
Dew Point: 27°F , -3°C
Humidity: 38%
Barometer: 30.11 inHg , 1019.6 hPa
Clouds: Clear
Visibility: 10 miles , 16 km
2018/12/11 23:56 KINW 112356Z AUTO 31004KT 10SM CLR 11/M03 A3011 RMK AO2 SLP186 T01111028 10139 20061 56004
 
KTUS - Tucson, Arizona, USA
Distance from station: SSE 121mi, 195km
Updated: Tue 11 Dec 2018 1653 MST
Clear
Clear
 Wind from SSW
Wind: SSW 5 mph , 7 km/h
Temperature: 68°F , 20°C
Dew Point: 36°F , 2°C
Humidity: 30%
Barometer: 30.02 inHg , 1016.6 hPa
Clouds: Clear
Visibility: 10 miles , 16 km
2018/12/11 23:53 KTUS 112353Z 20004KT 10SM CLR 20/02 A3002 RMK AO2 SLP139 T02000017 10222 20167 56002
KDMA - Davis AFB/Tucson, Arizona, USA
Distance from station: SE 122mi, 196km
Updated: Tue 11 Dec 2018 1658 MST
Partly cloudy
Partly cloudy
 Wind from calm
Wind: Calm
Temperature: 66°F , 19°C
Dew Point: 37°F , 3°C
Humidity: 35%
Barometer: 30.00 inHg , 1015.9 hPa
Clouds: Partly cloudy
Visibility: 10 miles , 16 km
Cloud details: Partly cloudy 16000 ft
2018/12/11 23:58 KDMA 112358Z AUTO 00000KT 10SM SCT160 19/03 A3000 RMK AO2 DZB45E54 SLP135 P0000 60000 T01930034 10236 20172 56003 $
 
KSOW - Show Low Municipal, Arizona, USA
Distance from station: ENE 123mi, 198km
Updated: Tue 11 Dec 2018 1715 MST
Clear
Clear
 Wind from SSW
Wind: SSW 6 mph , 9 km/h
Temperature: 45°F , 7°C
Wind Chill: 42°F , 6°C
Dew Point: 25°F , -4°C
Humidity: 46%
Barometer: 30.17 inHg , 1021.7 hPa
Clouds: Clear
Visibility: 10 miles , 16 km
2018/12/12 00:15 KSOW 120015Z AUTO 21005KT 10SM CLR 07/M04 A3017 RMK AO2
KSAD - Safford, Arizona, USA
Distance from station: ESE 148mi, 238km
Updated: Tue 11 Dec 2018 1651 MST
Clear
Clear
 Wind from S
Wind: S 6 mph , 9 km/h
Temperature: 57°F , 14°C
Dew Point: 34°F , 1°C
Humidity: 41%
Barometer: 30.07 inHg , 1018.3 hPa
Clouds: Clear
Visibility: 10 miles , 16 km
2018/12/11 23:51 KSAD 112351Z AUTO 17005KT 10SM CLR 14/01 A3007 RMK AO2 SLP166 T01390011 10161 20111 55007